Wetterdaten: Woche 11.04.11 - 17.04.11 (KW15)
Datum Zeit Temp. Innen Temp. Aussen UV X Diff Temp. Feuchte Inne Feuchte Auss Sonnenschein Luftdruck Regen ab 0,1 Wind Sonnenschein T Regendauer Windben
11.04.2011 00:00 19,6 C 9,8 C 0,0 UV-I 0,0 C 48 % 77 % 0 % 1024,1 hPa 0,0 l/m 0,0 km/h (0 Bft) 0,00 h 0,00 h 0,0 km/h (0 Bft)
11.04.2011 01:00 19,3 C 8,9 C 0,0 UV-I 0,0 C 48 % 80 % 0 % 1024,1 hPa 0,0 l/m 0,0 km/h (0 Bft) 0,00 h 0,00 h 0,0 km/h (0 Bft)
11.04.2011 02:00 19,1 C 8,3 C 0,0 UV-I 0,0 C 49 % 82 % 0 % 1023,6 hPa 0,0 l/m 0,0 km/h (0 Bft) 0,00 h 0,00 h 0,0 km/h (0 Bft)
11.04.2011 03:00 18,8 C 7,8 C 0,0 UV-I 0,0 C 49 % 84 % 0 % 1023,4 hPa 0,0 l/m 0,0 km/h (0 Bft) 0,00 h 0,00 h 0,0 km/h (0 Bft)
11.04.2011 04:00 18,7 C 7,5 C 0,0 UV-I 0,0 C 49 % 86 % 0 % 1022,8 hPa 0,0 l/m 0,0 km/h (0 Bft) 0,00 h 0,00 h 0,0 km/h (0 Bft)
11.04.2011 05:00 18,5 C 7,6 C 0,0 UV-I 0,0 C 50 % 87 % 0 % 1022,6 hPa 0,0 l/m 0,1 km/h (0 Bft) 0,00 h 0,00 h 0,5 km/h (0 Bft)
11.04.2011 06:00 18,3 C 7,7 C 0,0 UV-I 0,0 C 50 % 87 % 0 % 1022,3 hPa 0,0 l/m 1,3 km/h (1 Bft) 0,00 h 0,00 h 3,1 km/h (1 Bft)
11.04.2011 07:00 18,2 C 7,7 C 0,0 UV-I 0,0 C 50 % 86 % 0 % 1022,3 hPa 0,0 l/m 0,2 km/h (0 Bft) 0,00 h 0,00 h 0,2 km/h (0 Bft)
11.04.2011 08:00 18,2 C 8,9 C 0,0 UV-I 1,1 C 50 % 87 % 32 % 1022,4 hPa 0,0 l/m 0,7 km/h (0 Bft) 0,00 h 0,00 h 2,3 km/h (1 Bft)
11.04.2011 09:00 18,4 C 11,8 C 0,0 UV-I 3,8 C 50 % 82 % 92 % 1022,2 hPa 0,0 l/m 2,0 km/h (1 Bft) 0,83 h 0,00 h 3,7 km/h (1 Bft)
11.04.2011 10:00 18,8 C 14,9 C 0,9 UV-I 4,6 C 50 % 72 % 100 % 1022,3 hPa 0,0 l/m 0,6 km/h (0 Bft) 1,00 h 0,00 h 1,7 km/h (1 Bft)
11.04.2011 11:00 19,1 C 17,2 C 2,7 UV-I 6,3 C 50 % 59 % 100 % 1021,7 hPa 0,0 l/m 2,4 km/h (1 Bft) 1,00 h 0,00 h 4,3 km/h (1 Bft)
11.04.2011 12:00 19,4 C 19,6 C 2,8 UV-I 8,3 C 49 % 52 % 100 % 1021,4 hPa 0,0 l/m 2,9 km/h (1 Bft) 1,00 h 0,00 h 4,8 km/h (1 Bft)
11.04.2011 13:00 20,1 C 21,8 C 7,1 UV-I 7,6 C 48 % 45 % 100 % 1020,8 hPa 0,0 l/m 3,8 km/h (1 Bft) 1,00 h 0,00 h 6,0 km/h (2 Bft)
11.04.2011 14:00 21,3 C 23,6 C 7,7 UV-I 7,0 C 47 % 40 % 100 % 1020,9 hPa 0,0 l/m 4,4 km/h (1 Bft) 1,00 h 0,00 h 7,1 km/h (2 Bft)
11.04.2011 15:00 22,5 C 24,6 C 7,7 UV-I 5,5 C 44 % 36 % 100 % 1020,5 hPa 0,0 l/m 6,5 km/h (2 Bft) 1,00 h 0,00 h 9,4 km/h (2 Bft)
11.04.2011 16:00 23,3 C 24,8 C 6,5 UV-I 4,6 C 42 % 35 % 100 % 1020,0 hPa 0,0 l/m 7,1 km/h (2 Bft) 1,00 h 0,00 h 11,3 km/h (2 Bft)
11.04.2011 17:00 23,5 C 24,3 C 2,0 UV-I 3,0 C 40 % 35 % 85 % 1019,0 hPa 0,0 l/m 6,8 km/h (2 Bft) 0,60 h 0,00 h 9,3 km/h (2 Bft)
11.04.2011 18:00 23,2 C 22,9 C 0,0 UV-I 0,7 C 41 % 40 % 20 % 1018,5 hPa 0,0 l/m 6,1 km/h (2 Bft) 0,00 h 0,00 h 10,2 km/h (2 Bft)
11.04.2011 19:00 22,7 C 20,7 C 0,0 UV-I 0,0 C 42 % 45 % 0 % 1018,7 hPa 0,0 l/m 7,7 km/h (2 Bft) 0,00 h 0,00 h 10,8 km/h (2 Bft)
11.04.2011 20:00 22,2 C 18,1 C 0,0 UV-I 0,0 C 42 % 47 % 0 % 1019,1 hPa 0,0 l/m 3,9 km/h (1 Bft) 0,00 h 0,00 h 4,8 km/h (1 Bft)
11.04.2011 21:00 21,6 C 15,8 C 0,0 UV-I 0,0 C 43 % 53 % 0 % 1018,9 hPa 0,0 l/m 0,2 km/h (0 Bft) 0,00 h 0,00 h 0,0 km/h (0 Bft)
11.04.2011 22:00 21,1 C 13,8 C 0,0 UV-I 0,0 C 45 % 60 % 0 % 1018,6 hPa 0,0 l/m 0,0 km/h (0 Bft) 0,00 h 0,00 h 0,0 km/h (0 Bft)
11.04.2011 23:00 20,7 C 12,7 C 0,0 UV-I 0,0 C 46 % 66 % 0 % 1018,3 hPa 0,0 l/m 0,0 km/h (0 Bft) 0,00 h 0,00 h 0,0 km/h (0 Bft)
12.04.2011 00:00 20,4 C 12,8 C 0,0 UV-I 0,0 C 47 % 70 % 0 % 1017,9 hPa 0,0 l/m 0,5 km/h (0 Bft) 0,00 h 0,00 h 1,9 km/h (1 Bft)
12.04.2011 01:00 20,2 C 13,5 C 0,0 UV-I 0,0 C 48 % 74 % 0 % 1018,0 hPa 0,0 l/m 9,7 km/h (2 Bft) 0,00 h 0,00 h 15,9 km/h (3 Bft)
12.04.2011 02:00 19,7 C 10,8 C 0,0 UV-I 0,0 C 50 % 83 % 0 % 1019,1 hPa 1,2 l/m 8,1 km/h (2 Bft) 0,00 h 0,00 h 11,0 km/h (2 Bft)
12.04.2011 03:00 19,2 C 9,6 C 0,0 UV-I 0,0 C 51 % 88 % 0 % 1019,3 hPa 0,2 l/m 4,8 km/h (1 Bft) 0,00 h 0,00 h 7,9 km/h (2 Bft)
12.04.2011 04:00 18,8 C 9,3 C 0,0 UV-I 0,0 C 51 % 89 % 0 % 1019,8 hPa 0,1 l/m 6,3 km/h (2 Bft) 0,00 h 0,00 h 10,3 km/h (2 Bft)
12.04.2011 05:00 18,5 C 9,1 C 0,0 UV-I 0,0 C 51 % 89 % 0 % 1020,1 hPa 0,0 l/m 5,7 km/h (1 Bft) 0,00 h 0,00 h 8,8 km/h (2 Bft)
12.04.2011 06:00 18,2 C 8,9 C 0,0 UV-I 0,0 C 51 % 88 % 0 % 1020,3 hPa 0,0 l/m 7,1 km/h (2 Bft) 0,00 h 0,00 h 9,4 km/h (2 Bft)
12.04.2011 07:00 17,9 C 8,8 C 0,0 UV-I 0,0 C 51 % 87 % 0 % 1020,9 hPa 0,0 l/m 6,5 km/h (2 Bft) 0,00 h 0,60 h 10,3 km/h (2 Bft)
12.04.2011 08:00 18,1 C 9,0 C 0,0 UV-I 0,1 C 51 % 86 % 2 % 1021,5 hPa 0,0 l/m 6,2 km/h (2 Bft) 0,00 h 1,00 h 10,6 km/h (2 Bft)
12.04.2011 09:00 18,2 C 9,0 C 0,1 UV-I 0,7 C 51 % 85 % 19 % 1022,4 hPa 0,3 l/m 7,8 km/h (2 Bft) 0,00 h 1,00 h 11,7 km/h (2 Bft)
12.04.2011 10:00 18,4 C 8,6 C 0,4 UV-I 0,5 C 51 % 84 % 15 % 1023,2 hPa 0,4 l/m 11,6 km/h (2 Bft) 0,00 h 1,00 h 17,0 km/h (3 Bft)
12.04.2011 11:00 18,4 C 9,0 C 1,6 UV-I 2,0 C 51 % 82 % 56 % 1024,1 hPa 0,2 l/m 10,7 km/h (2 Bft) 0,23 h 1,00 h 15,8 km/h (3 Bft)
12.04.2011 12:00 18,7 C 9,2 C 2,7 UV-I 2,9 C 50 % 78 % 69 % 1024,8 hPa 0,4 l/m 12,8 km/h (3 Bft) 0,50 h 1,00 h 20,6 km/h (4 Bft)
12.04.2011 13:00 19,0 C 10,5 C 3,8 UV-I 3,4 C 48 % 66 % 84 % 1025,3 hPa 0,0 l/m 18,4 km/h (3 Bft) 0,67 h 1,00 h 25,0 km/h (4 Bft)
12.04.2011 14:00 19,7 C 11,0 C 4,2 UV-I 3,8 C 46 % 64 % 93 % 1026,0 hPa 0,0 l/m 12,1 km/h (2 Bft) 0,80 h 1,00 h 16,8 km/h (3 Bft)
12.04.2011 15:00 20,6 C 12,2 C 5,8 UV-I 4,2 C 44 % 58 % 90 % 1026,1 hPa 0,0 l/m 11,5 km/h (2 Bft) 0,80 h 0,83 h 16,7 km/h (3 Bft)
12.04.2011 16:00 21,5 C 12,7 C 5,2 UV-I 3,6 C 42 % 47 % 87 % 1026,7 hPa 0,0 l/m 15,1 km/h (3 Bft) 0,70 h 1,00 h 19,9 km/h (4 Bft)
12.04.2011 17:00 21,7 C 12,3 C 2,2 UV-I 3,0 C 39 % 46 % 83 % 1026,8 hPa 0,0 l/m 14,8 km/h (3 Bft) 0,57 h 1,00 h 26,7 km/h (4 Bft)
12.04.2011 18:00 21,1 C 11,6 C 0,2 UV-I 1,5 C 39 % 49 % 42 % 1026,6 hPa 0,0 l/m 15,2 km/h (3 Bft) 0,23 h 0,37 h 20,1 km/h (4 Bft)
12.04.2011 19:00 20,5 C 10,5 C 0,0 UV-I 0,3 C 39 % 53 % 8 % 1026,8 hPa 0,0 l/m 10,0 km/h (2 Bft) 0,00 h 0,00 h 15,4 km/h (3 Bft)
12.04.2011 20:00 19,6 C 8,8 C 0,0 UV-I 0,0 C 40 % 60 % 0 % 1026,7 hPa 0,0 l/m 7,1 km/h (2 Bft) 0,00 h 0,00 h 10,7 km/h (2 Bft)
12.04.2011 21:00 18,7 C 7,9 C 0,0 UV-I 0,0 C 42 % 65 % 0 % 1026,8 hPa 0,0 l/m 3,7 km/h (1 Bft) 0,00 h 0,00 h 7,8 km/h (2 Bft)
12.04.2011 22:00 18,2 C 7,0 C 0,0 UV-I 0,0 C 43 % 69 % 0 % 1026,8 hPa 0,0 l/m 3,0 km/h (1 Bft) 0,00 h 0,00 h 4,0 km/h (1 Bft)
12.04.2011 23:00 17,9 C 6,3 C 0,0 UV-I 0,0 C 44 % 73 % 0 % 1026,6 hPa 0,0 l/m 1,1 km/h (1 Bft) 0,00 h 0,00 h 2,3 km/h (1 Bft)
13.04.2011 00:00 17,6 C 5,7 C 0,0 UV-I 0,0 C 44 % 76 % 0 % 1026,4 hPa 0,0 l/m 1,5 km/h (1 Bft) 0,00 h 0,00 h 3,5 km/h (1 Bft)
13.04.2011 01:00 17,3 C 4,8 C 0,0 UV-I 0,0 C 45 % 79 % 0 % 1025,8 hPa 0,0 l/m 0,4 km/h (0 Bft) 0,00 h 0,00 h 1,1 km/h (1 Bft)
13.04.2011 02:00 17,1 C 4,5 C 0,0 UV-I 0,0 C 45 % 82 % 0 % 1025,5 hPa 0,0 l/m 2,1 km/h (1 Bft) 0,00 h 0,00 h 3,7 km/h (1 Bft)
13.04.2011 03:00 16,9 C 4,4 C 0,0 UV-I 0,0 C 45 % 83 % 0 % 1025,0 hPa 0,0 l/m 0,9 km/h (0 Bft) 0,00 h 0,00 h 1,8 km/h (1 Bft)
13.04.2011 04:00 16,8 C 4,1 C 0,0 UV-I 0,0 C 45 % 85 % 0 % 1024,4 hPa 0,0 l/m 2,0 km/h (1 Bft) 0,00 h 0,00 h 4,9 km/h (1 Bft)
13.04.2011 05:00 16,7 C 4,2 C 0,0 UV-I 0,0 C 46 % 86 % 0 % 1024,4 hPa 0,0 l/m 2,5 km/h (1 Bft) 0,00 h 0,00 h 5,4 km/h (1 Bft)
13.04.2011 06:00 16,6 C 3,8 C 0,0 UV-I 0,0 C 46 % 86 % 0 % 1024,0 hPa 0,0 l/m 0,9 km/h (0 Bft) 0,00 h 0,00 h 1,8 km/h (1 Bft)
13.04.2011 07:00 16,4 C 3,8 C 0,0 UV-I 0,0 C 46 % 86 % 0 % 1024,0 hPa 0,0 l/m 1,2 km/h (1 Bft) 0,00 h 0,00 h 3,3 km/h (1 Bft)
13.04.2011 08:00 16,4 C 5,2 C 0,0 UV-I 1,2 C 46 % 85 % 28 % 1023,8 hPa 0,0 l/m 4,7 km/h (1 Bft) 0,23 h 0,00 h 7,9 km/h (2 Bft)
13.04.2011 09:00 16,5 C 7,9 C 0,5 UV-I 6,4 C 46 % 78 % 100 % 1023,5 hPa 0,0 l/m 6,2 km/h (2 Bft) 1,00 h 0,00 h 8,8 km/h (2 Bft)
13.04.2011 10:00 16,7 C 10,3 C 5,6 UV-I 7,1 C 46 % 68 % 100 % 1023,4 hPa 0,0 l/m 8,2 km/h (2 Bft) 1,00 h 0,00 h 12,6 km/h (3 Bft)
13.04.2011 11:00 16,9 C 12,2 C 5,6 UV-I 6,3 C 46 % 58 % 100 % 1023,1 hPa 0,0 l/m 8,4 km/h (2 Bft) 1,00 h 0,00 h 12,6 km/h (3 Bft)
13.04.2011 12:00 17,2 C 12,5 C 1,1 UV-I 2,9 C 45 % 52 % 81 % 1022,9 hPa 0,0 l/m 8,3 km/h (2 Bft) 0,43 h 0,00 h 14,2 km/h (3 Bft)
13.04.2011 13:00 17,6 C 13,3 C 2,8 UV-I 3,9 C 44 % 47 % 90 % 1022,7 hPa 0,0 l/m 9,4 km/h (2 Bft) 0,80 h 0,00 h 13,3 km/h (3 Bft)
13.04.2011 14:00 18,2 C 13,6 C 2,0 UV-I 2,8 C 43 % 45 % 80 % 1022,4 hPa 0,0 l/m 9,2 km/h (2 Bft) 0,47 h 0,00 h 11,9 km/h (2 Bft)
13.04.2011 15:00 18,5 C 13,6 C 1,6 UV-I 2,3 C 42 % 45 % 63 % 1022,0 hPa 0,0 l/m 6,3 km/h (2 Bft) 0,23 h 0,00 h 10,1 km/h (2 Bft)
13.04.2011 16:00 19,7 C 14,8 C 4,8 UV-I 4,6 C 41 % 40 % 97 % 1022,0 hPa 0,0 l/m 8,7 km/h (2 Bft) 0,90 h 0,00 h 15,6 km/h (3 Bft)
13.04.2011 17:00 20,5 C 15,0 C 1,8 UV-I 3,6 C 38 % 37 % 94 % 1021,9 hPa 0,0 l/m 7,4 km/h (2 Bft) 0,90 h 0,00 h 11,4 km/h (2 Bft)
13.04.2011 18:00 20,1 C 13,7 C 0,0 UV-I 0,7 C 38 % 41 % 21 % 1021,2 hPa 0,0 l/m 6,5 km/h (2 Bft) 0,00 h 0,00 h 8,5 km/h (2 Bft)
13.04.2011 19:00 19,5 C 12,4 C 0,0 UV-I 0,0 C 39 % 45 % 0 % 1021,2 hPa 0,0 l/m 4,3 km/h (1 Bft) 0,00 h 0,07 h 5,3 km/h (1 Bft)
13.04.2011 20:00 18,8 C 11,0 C 0,0 UV-I 0,0 C 40 % 51 % 0 % 1020,8 hPa 0,0 l/m 1,1 km/h (1 Bft) 0,00 h 0,00 h 2,1 km/h (1 Bft)
13.04.2011 21:00 18,2 C 9,6 C 0,0 UV-I 0,0 C 41 % 57 % 0 % 1020,8 hPa 0,0 l/m 0,1 km/h (0 Bft) 0,00 h 0,00 h 0,7 km/h (0 Bft)
13.04.2011 22:00 17,8 C 8,1 C 0,0 UV-I 0,0 C 42 % 63 % 0 % 1020,7 hPa 0,0 l/m 0,0 km/h (0 Bft) 0,00 h 0,00 h 0,0 km/h (0 Bft)
13.04.2011 23:00 17,5 C 7,1 C 0,0 UV-I 0,0 C 43 % 68 % 0 % 1020,9 hPa 0,0 l/m 0,0 km/h (0 Bft) 0,00 h 0,00 h 0,0 km/h (0 Bft)
14.04.2011 00:00 17,3 C 7,2 C 0,0 UV-I 0,0 C 44 % 71 % 0 % 1020,7 hPa 0,0 l/m 0,0 km/h (0 Bft) 0,00 h 0,00 h 0,0 km/h (0 Bft)
14.04.2011 01:00 17,2 C 7,3 C 0,0 UV-I 0,0 C 44 % 72 % 0 % 1020,4 hPa 0,0 l/m 0,0 km/h (0 Bft) 0,00 h 0,00 h 0,0 km/h (0 Bft)
14.04.2011 02:00 17,2 C 7,4 C 0,0 UV-I 0,0 C 45 % 72 % 0 % 1019,9 hPa 0,0 l/m 0,0 km/h (0 Bft) 0,00 h 0,00 h 0,0 km/h (0 Bft)
14.04.2011 03:00 17,2 C 7,2 C 0,0 UV-I 0,0 C 45 % 73 % 0 % 1019,6 hPa 0,0 l/m 0,0 km/h (0 Bft) 0,00 h 0,00 h 0,0 km/h (0 Bft)
14.04.2011 04:00 17,1 C 6,5 C 0,0 UV-I 0,0 C 45 % 75 % 0 % 1019,2 hPa 0,0 l/m 0,0 km/h (0 Bft) 0,00 h 0,00 h 0,0 km/h (0 Bft)
14.04.2011 05:00 16,9 C 4,9 C 0,0 UV-I 0,0 C 46 % 79 % 0 % 1019,1 hPa 0,0 l/m 0,0 km/h (0 Bft) 0,00 h 0,00 h 0,0 km/h (0 Bft)
14.04.2011 06:00 16,7 C 3,8 C 0,0 UV-I 0,0 C 46 % 83 % 0 % 1019,0 hPa 0,0 l/m 0,0 km/h (0 Bft) 0,00 h 0,00 h 0,0 km/h (0 Bft)
14.04.2011 07:00 16,6 C 3,9 C 0,0 UV-I 0,0 C 46 % 86 % 1 % 1019,2 hPa 0,0 l/m 0,0 km/h (0 Bft) 0,00 h 0,00 h 0,0 km/h (0 Bft)
14.04.2011 08:00 16,6 C 5,8 C 0,0 UV-I 1,2 C 46 % 85 % 35 % 1019,5 hPa 0,0 l/m 0,3 km/h (0 Bft) 0,00 h 0,00 h 1,0 km/h (0 Bft)
14.04.2011 09:00 16,8 C 7,6 C 0,0 UV-I 1,1 C 46 % 81 % 33 % 1019,9 hPa 0,0 l/m 0,6 km/h (0 Bft) 0,00 h 0,00 h 0,9 km/h (0 Bft)
14.04.2011 10:00 17,0 C 8,9 C 0,1 UV-I 1,9 C 47 % 76 % 55 % 1020,3 hPa 0,0 l/m 0,1 km/h (0 Bft) 0,00 h 0,00 h 0,0 km/h (0 Bft)
14.04.2011 11:00 17,2 C 10,1 C 0,5 UV-I 2,5 C 46 % 71 % 71 % 1020,4 hPa 0,0 l/m 0,5 km/h (0 Bft) 0,27 h 0,00 h 1,2 km/h (1 Bft)
14.04.2011 12:00 17,6 C 11,4 C 2,3 UV-I 4,8 C 46 % 60 % 100 % 1020,6 hPa 0,0 l/m 2,9 km/h (1 Bft) 1,00 h 0,00 h 5,7 km/h (1 Bft)
14.04.2011 13:00 18,0 C 12,5 C 3,8 UV-I 6,3 C 45 % 50 % 100 % 1020,3 hPa 0,0 l/m 5,2 km/h (1 Bft) 1,00 h 0,00 h 8,9 km/h (2 Bft)
14.04.2011 14:00 18,9 C 13,5 C 4,5 UV-I 6,4 C 43 % 45 % 100 % 1020,3 hPa 0,0 l/m 5,9 km/h (2 Bft) 1,00 h 0,00 h 8,5 km/h (2 Bft)
14.04.2011 15:00 20,0 C 14,1 C 4,8 UV-I 6,0 C 41 % 41 % 100 % 1020,2 hPa 0,0 l/m 5,7 km/h (1 Bft) 1,00 h 0,00 h 7,8 km/h (2 Bft)
14.04.2011 16:00 20,7 C 13,8 C 2,8 UV-I 4,1 C 39 % 40 % 96 % 1020,1 hPa 0,0 l/m 5,3 km/h (1 Bft) 0,97 h 0,00 h 6,9 km/h (2 Bft)
14.04.2011 17:00 20,6 C 13,5 C 0,6 UV-I 2,0 C 39 % 43 % 56 % 1019,8 hPa 0,0 l/m 3,8 km/h (1 Bft) 0,00 h 0,00 h 6,0 km/h (2 Bft)
14.04.2011 18:00 20,3 C 13,0 C 0,0 UV-I 0,6 C 39 % 44 % 18 % 1019,8 hPa 0,0 l/m 5,6 km/h (1 Bft) 0,00 h 0,23 h 7,2 km/h (2 Bft)
14.04.2011 19:00 19,9 C 12,6 C 0,0 UV-I 0,0 C 39 % 47 % 1 % 1019,4 hPa 0,0 l/m 1,8 km/h (1 Bft) 0,00 h 0,40 h 2,0 km/h (1 Bft)
14.04.2011 20:00 19,4 C 11,3 C 0,0 UV-I 0,0 C 39 % 52 % 0 % 1019,7 hPa 0,0 l/m 0,0 km/h (0 Bft) 0,00 h 0,43 h 0,2 km/h (0 Bft)
14.04.2011 21:00 18,9 C 10,3 C 0,0 UV-I 0,0 C 40 % 57 % 0 % 1019,9 hPa 0,0 l/m 0,0 km/h (0 Bft) 0,00 h 0,47 h 0,2 km/h (0 Bft)
14.04.2011 22:00 18,3 C 9,1 C 0,0 UV-I 0,0 C 42 % 63 % 0 % 1020,0 hPa 0,0 l/m 0,0 km/h (0 Bft) 0,00 h 0,00 h 0,0 km/h (0 Bft)
14.04.2011 23:00 18,0 C 8,0 C 0,0 UV-I 0,0 C 43 % 69 % 0 % 1020,2 hPa 0,0 l/m 0,0 km/h (0 Bft) 0,00 h 0,00 h 0,0 km/h (0 Bft)
15.04.2011 00:00 17,7 C 6,7 C 0,0 UV-I 0,0 C 44 % 73 % 0 % 1020,2 hPa 0,0 l/m 0,0 km/h (0 Bft) 0,00 h 0,00 h 0,0 km/h (0 Bft)
15.04.2011 01:00 17,3 C 5,4 C 0,0 UV-I 0,0 C 44 % 77 % 0 % 1020,1 hPa 0,0 l/m 0,0 km/h (0 Bft) 0,00 h 0,00 h 0,0 km/h (0 Bft)
15.04.2011 02:00 17,0 C 4,5 C 0,0 UV-I 0,0 C 45 % 81 % 0 % 1020,1 hPa 0,0 l/m 0,0 km/h (0 Bft) 0,00 h 0,00 h 0,0 km/h (0 Bft)
15.04.2011 03:00 16,8 C 3,8 C 0,0 UV-I 0,0 C 45 % 83 % 0 % 1019,9 hPa 0,0 l/m 0,0 km/h (0 Bft) 0,00 h 0,00 h 0,0 km/h (0 Bft)
15.04.2011 04:00 16,6 C 3,2 C 0,0 UV-I 0,0 C 45 % 85 % 0 % 1019,9 hPa 0,0 l/m 0,0 km/h (0 Bft) 0,00 h 0,00 h 0,0 km/h (0 Bft)
15.04.2011 05:00 16,4 C 2,6 C 0,0 UV-I 0,0 C 45 % 87 % 0 % 1019,9 hPa 0,0 l/m 0,0 km/h (0 Bft) 0,00 h 0,00 h 0,0 km/h (0 Bft)
15.04.2011 06:00 16,2 C 2,1 C 0,0 UV-I 0,0 C 45 % 87 % 0 % 1020,0 hPa 0,0 l/m 0,0 km/h (0 Bft) 0,00 h 0,00 h 0,0 km/h (0 Bft)
15.04.2011 07:00 16,0 C 2,0 C 0,0 UV-I 0,0 C 45 % 88 % 0 % 1020,6 hPa 0,0 l/m 0,0 km/h (0 Bft) 0,00 h 0,30 h 0,0 km/h (0 Bft)
15.04.2011 08:00 16,1 C 3,8 C 0,0 UV-I 1,4 C 46 % 90 % 31 % 1020,9 hPa 0,0 l/m 0,1 km/h (0 Bft) 0,27 h 0,00 h 0,9 km/h (0 Bft)
15.04.2011 09:00 16,3 C 8,2 C 0,6 UV-I 6,7 C 46 % 83 % 100 % 1021,1 hPa 0,0 l/m 3,0 km/h (1 Bft) 1,00 h 0,00 h 5,4 km/h (1 Bft)
15.04.2011 10:00 16,6 C 11,6 C 4,6 UV-I 6,9 C 46 % 67 % 100 % 1021,5 hPa 0,0 l/m 4,2 km/h (1 Bft) 1,00 h 0,00 h 8,0 km/h (2 Bft)
15.04.2011 11:00 16,8 C 13,5 C 6,0 UV-I 8,0 C 45 % 54 % 100 % 1021,8 hPa 0,0 l/m 2,8 km/h (1 Bft) 1,00 h 0,00 h 5,9 km/h (2 Bft)
15.04.2011 12:00 17,2 C 15,0 C 3,5 UV-I 7,2 C 45 % 45 % 100 % 1022,0 hPa 0,0 l/m 5,4 km/h (1 Bft) 1,00 h 0,00 h 8,4 km/h (2 Bft)
15.04.2011 13:00 17,8 C 15,6 C 4,5 UV-I 5,3 C 44 % 41 % 95 % 1021,9 hPa 0,0 l/m 4,6 km/h (1 Bft) 0,87 h 0,00 h 6,8 km/h (2 Bft)
15.04.2011 14:00 18,7 C 15,6 C 2,5 UV-I 4,2 C 43 % 40 % 86 % 1021,9 hPa 0,0 l/m 5,9 km/h (2 Bft) 0,67 h 0,00 h 8,9 km/h (2 Bft)
15.04.2011 15:00 19,2 C 16,1 C 4,3 UV-I 4,5 C 42 % 37 % 83 % 1021,8 hPa 0,0 l/m 5,1 km/h (1 Bft) 0,67 h 0,00 h 8,1 km/h (2 Bft)
15.04.2011 16:00 20,2 C 15,7 C 1,8 UV-I 2,6 C 40 % 38 % 70 % 1021,7 hPa 0,0 l/m 7,5 km/h (2 Bft) 0,50 h 0,00 h 10,2 km/h (2 Bft)
15.04.2011 17:00 20,5 C 16,5 C 2,3 UV-I 5,0 C 39 % 36 % 95 % 1021,4 hPa 0,0 l/m 6,1 km/h (2 Bft) 0,90 h 0,00 h 8,5 km/h (2 Bft)
15.04.2011 18:00 20,4 C 15,2 C 0,0 UV-I 0,2 C 39 % 38 % 6 % 1021,3 hPa 0,0 l/m 5,0 km/h (1 Bft) 0,00 h 0,00 h 6,6 km/h (2 Bft)
15.04.2011 19:00 20,1 C 14,9 C 0,0 UV-I 0,1 C 39 % 41 % 3 % 1021,3 hPa 0,0 l/m 4,9 km/h (1 Bft) 0,00 h 0,00 h 6,9 km/h (2 Bft)
15.04.2011 20:00 19,6 C 13,3 C 0,0 UV-I 0,0 C 40 % 46 % 0 % 1021,2 hPa 0,0 l/m 0,3 km/h (0 Bft) 0,00 h 0,10 h 0,4 km/h (0 Bft)
15.04.2011 21:00 18,9 C 10,7 C 0,0 UV-I 0,0 C 41 % 54 % 0 % 1021,4 hPa 0,0 l/m 0,0 km/h (0 Bft) 0,00 h 0,40 h 0,0 km/h (0 Bft)
15.04.2011 22:00 18,3 C 8,7 C 0,0 UV-I 0,0 C 42 % 61 % 0 % 1021,6 hPa 0,0 l/m 0,0 km/h (0 Bft) 0,00 h 0,40 h 0,0 km/h (0 Bft)
15.04.2011 23:00 18,0 C 8,3 C 0,0 UV-I 0,0 C 43 % 65 % 0 % 1021,9 hPa 0,0 l/m 0,2 km/h (0 Bft) 0,00 h 0,67 h 0,5 km/h (0 Bft)
16.04.2011 00:00 17,7 C 7,2 C 0,0 UV-I 0,0 C 44 % 68 % 0 % 1022,0 hPa 0,0 l/m 0,0 km/h (0 Bft) 0,00 h 0,70 h 0,0 km/h (0 Bft)
16.04.2011 01:00 17,4 C 7,3 C 0,0 UV-I 0,0 C 44 % 68 % 0 % 1021,8 hPa 0,0 l/m 0,1 km/h (0 Bft) 0,00 h 0,70 h 0,5 km/h (0 Bft)
16.04.2011 02:00 17,1 C 7,0 C 0,0 UV-I 0,0 C 44 % 68 % 0 % 1021,7 hPa 0,0 l/m 0,2 km/h (0 Bft) 0,00 h 0,80 h 0,7 km/h (0 Bft)
16.04.2011 03:00 17,0 C 6,5 C 0,0 UV-I 0,0 C 44 % 70 % 0 % 1021,8 hPa 0,0 l/m 0,1 km/h (0 Bft) 0,00 h 0,83 h 0,0 km/h (0 Bft)
16.04.2011 04:00 16,8 C 6,4 C 0,0 UV-I 0,0 C 44 % 71 % 0 % 1021,7 hPa 0,0 l/m 1,9 km/h (1 Bft) 0,00 h 0,90 h 3,8 km/h (1 Bft)
16.04.2011 05:00 16,8 C 6,5 C 0,0 UV-I 0,0 C 44 % 70 % 0 % 1021,8 hPa 0,0 l/m 0,8 km/h (0 Bft) 0,00 h 0,90 h 0,9 km/h (0 Bft)
16.04.2011 06:00 16,6 C 5,3 C 0,0 UV-I 0,0 C 44 % 74 % 0 % 1021,8 hPa 0,0 l/m 0,6 km/h (0 Bft) 0,00 h 1,00 h 1,4 km/h (1 Bft)
16.04.2011 07:00 16,5 C 5,4 C 0,0 UV-I 0,0 C 45 % 76 % 0 % 1022,1 hPa 0,0 l/m 3,0 km/h (1 Bft) 0,00 h 0,93 h 5,1 km/h (1 Bft)
16.04.2011 08:00 16,6 C 6,8 C 0,1 UV-I 1,4 C 45 % 75 % 33 % 1022,8 hPa 0,0 l/m 4,1 km/h (1 Bft) 0,30 h 0,63 h 7,5 km/h (2 Bft)
16.04.2011 09:00 16,7 C 10,0 C 0,8 UV-I 5,9 C 45 % 69 % 100 % 1022,8 hPa 0,0 l/m 4,8 km/h (1 Bft) 1,00 h 0,00 h 6,6 km/h (2 Bft)
16.04.2011 10:00 16,9 C 13,2 C 5,0 UV-I 6,8 C 45 % 59 % 100 % 1023,1 hPa 0,0 l/m 3,9 km/h (1 Bft) 1,00 h 0,00 h 6,0 km/h (2 Bft)
16.04.2011 11:00 17,2 C 15,0 C 5,0 UV-I 6,6 C 45 % 50 % 100 % 1023,3 hPa 0,0 l/m 4,9 km/h (1 Bft) 1,00 h 0,00 h 8,7 km/h (2 Bft)
16.04.2011 12:00 17,7 C 16,6 C 3,3 UV-I 7,0 C 44 % 40 % 100 % 1023,5 hPa 0,0 l/m 5,3 km/h (1 Bft) 1,00 h 0,00 h 8,6 km/h (2 Bft)
16.04.2011 13:00 18,4 C 17,2 C 5,0 UV-I 5,4 C 42 % 36 % 100 % 1023,3 hPa 0,0 l/m 6,1 km/h (2 Bft) 1,00 h 0,00 h 10,1 km/h (2 Bft)
16.04.2011 14:00 19,4 C 17,1 C 3,0 UV-I 3,9 C 41 % 35 % 91 % 1023,4 hPa 0,0 l/m 3,8 km/h (1 Bft) 0,80 h 0,00 h 6,6 km/h (2 Bft)
16.04.2011 15:00 19,9 C 17,3 C 3,0 UV-I 3,9 C 40 % 35 % 82 % 1023,3 hPa 0,0 l/m 3,1 km/h (1 Bft) 0,63 h 0,00 h 4,8 km/h (1 Bft)
16.04.2011 16:00 20,0 C 16,5 C 0,9 UV-I 1,1 C 39 % 36 % 31 % 1023,0 hPa 0,0 l/m 1,7 km/h (1 Bft) 0,00 h 0,00 h 4,4 km/h (1 Bft)
16.04.2011 17:00 19,8 C 16,4 C 0,8 UV-I 1,4 C 39 % 36 % 41 % 1022,9 hPa 0,0 l/m 0,7 km/h (0 Bft) 0,00 h 0,00 h 1,9 km/h (1 Bft)
16.04.2011 18:00 19,8 C 16,0 C 0,0 UV-I 0,4 C 39 % 36 % 13 % 1022,8 hPa 0,0 l/m 0,1 km/h (0 Bft) 0,00 h 0,00 h 0,2 km/h (0 Bft)
16.04.2011 19:00 19,6 C 15,5 C 0,0 UV-I 0,0 C 39 % 38 % 0 % 1023,0 hPa 0,0 l/m 0,1 km/h (0 Bft) 0,00 h 0,17 h 0,0 km/h (0 Bft)
16.04.2011 20:00 19,3 C 14,3 C 0,0 UV-I 0,0 C 39 % 45 % 0 % 1023,2 hPa 0,0 l/m 0,0 km/h (0 Bft) 0,00 h 0,33 h 0,0 km/h (0 Bft)
16.04.2011 21:00 18,9 C 13,0 C 0,0 UV-I 0,0 C 41 % 53 % 0 % 1023,2 hPa 0,0 l/m 0,1 km/h (0 Bft) 0,00 h 0,47 h 0,0 km/h (0 Bft)
16.04.2011 22:00 18,6 C 12,1 C 0,0 UV-I 0,0 C 42 % 60 % 0 % 1023,3 hPa 0,0 l/m 0,0 km/h (0 Bft) 0,00 h 0,53 h 0,0 km/h (0 Bft)
16.04.2011 23:00 18,4 C 11,6 C 0,0 UV-I 0,0 C 43 % 63 % 0 % 1023,6 hPa 0,0 l/m 0,1 km/h (0 Bft) 0,00 h 0,57 h 0,0 km/h (0 Bft)
17.04.2011 00:00 18,3 C 11,0 C 0,0 UV-I 0,0 C 44 % 67 % 0 % 1023,8 hPa 0,0 l/m 0,0 km/h (0 Bft) 0,00 h 0,63 h 0,0 km/h (0 Bft)
17.04.2011 01:00 18,2 C 10,6 C 0,0 UV-I 0,0 C 45 % 69 % 0 % 1023,9 hPa 0,0 l/m 0,0 km/h (0 Bft) 0,00 h 0,80 h 0,0 km/h (0 Bft)
17.04.2011 02:00 18,1 C 10,3 C 0,0 UV-I 0,0 C 45 % 71 % 0 % 1024,0 hPa 0,0 l/m 0,1 km/h (0 Bft) 0,00 h 0,67 h 0,2 km/h (0 Bft)
17.04.2011 03:00 18,0 C 9,7 C 0,0 UV-I 0,0 C 46 % 72 % 0 % 1024,1 hPa 0,0 l/m 0,0 km/h (0 Bft) 0,00 h 1,00 h 0,0 km/h (0 Bft)
17.04.2011 04:00 17,8 C 8,8 C 0,0 UV-I 0,0 C 46 % 74 % 0 % 1023,9 hPa 0,0 l/m 0,0 km/h (0 Bft) 0,00 h 1,00 h 0,0 km/h (0 Bft)
17.04.2011 05:00 17,6 C 7,8 C 0,0 UV-I 0,0 C 47 % 79 % 0 % 1024,2 hPa 0,0 l/m 0,0 km/h (0 Bft) 0,00 h 1,00 h 0,0 km/h (0 Bft)
17.04.2011 06:00 17,4 C 7,0 C 0,0 UV-I 0,0 C 47 % 81 % 0 % 1024,3 hPa 0,0 l/m 0,0 km/h (0 Bft) 0,00 h 1,00 h 0,0 km/h (0 Bft)
17.04.2011 07:00 17,2 C 7,3 C 0,0 UV-I 0,1 C 48 % 82 % 3 % 1024,6 hPa 0,0 l/m 0,5 km/h (0 Bft) 0,00 h 1,00 h 1,2 km/h (1 Bft)
17.04.2011 08:00 17,3 C 9,8 C 0,1 UV-I 1,8 C 47 % 75 % 48 % 1025,3 hPa 0,0 l/m 2,9 km/h (1 Bft) 0,30 h 0,57 h 4,8 km/h (1 Bft)
17.04.2011 09:00 17,6 C 12,9 C 0,8 UV-I 5,5 C 46 % 62 % 100 % 1025,7 hPa 0,0 l/m 2,7 km/h (1 Bft) 1,00 h 0,00 h 5,3 km/h (1 Bft)
17.04.2011 10:00 17,8 C 15,3 C 4,4 UV-I 7,5 C 46 % 48 % 100 % 1025,8 hPa 0,0 l/m 1,9 km/h (1 Bft) 1,00 h 0,00 h 5,2 km/h (1 Bft)
17.04.2011 11:00 18,0 C 16,8 C 5,8 UV-I 6,9 C 45 % 38 % 100 % 1026,1 hPa 0,0 l/m 4,7 km/h (1 Bft) 1,00 h 0,00 h 6,9 km/h (2 Bft)
17.04.2011 12:00 18,4 C 17,5 C 3,8 UV-I 6,6 C 44 % 34 % 100 % 1026,2 hPa 0,0 l/m 4,9 km/h (1 Bft) 1,00 h 0,00 h 7,9 km/h (2 Bft)
17.04.2011 13:00 19,1 C 17,7 C 5,0 UV-I 6,8 C 43 % 33 % 100 % 1026,1 hPa 0,0 l/m 6,6 km/h (2 Bft) 1,00 h 0,00 h 10,0 km/h (2 Bft)
17.04.2011 14:00 20,2 C 18,3 C 5,9 UV-I 6,9 C 42 % 32 % 100 % 1026,2 hPa 0,0 l/m 6,0 km/h (2 Bft) 1,00 h 0,00 h 8,2 km/h (2 Bft)
17.04.2011 15:00 21,1 C 18,9 C 4,5 UV-I 5,4 C 40 % 31 % 100 % 1026,1 hPa 0,0 l/m 5,2 km/h (1 Bft) 1,00 h 0,00 h 7,0 km/h (2 Bft)
17.04.2011 16:00 21,3 C 18,1 C 2,3 UV-I 2,5 C 39 % 32 % 71 % 1025,4 hPa 0,0 l/m 7,1 km/h (2 Bft) 0,27 h 0,00 h 9,6 km/h (2 Bft)
17.04.2011 17:00 21,2 C 18,3 C 1,4 UV-I 2,0 C 39 % 32 % 57 % 1025,2 hPa 0,0 l/m 4,0 km/h (1 Bft) 0,27 h 0,00 h 6,3 km/h (2 Bft)
17.04.2011 18:00 21,1 C 18,4 C 0,2 UV-I 0,9 C 39 % 32 % 25 % 1024,6 hPa 0,0 l/m 3,9 km/h (1 Bft) 0,00 h 0,00 h 7,6 km/h (2 Bft)
17.04.2011 19:00 21,0 C 17,5 C 0,0 UV-I 0,1 C 39 % 34 % 2 % 1024,5 hPa 0,0 l/m 1,7 km/h (1 Bft) 0,00 h 0,00 h 2,2 km/h (1 Bft)
17.04.2011 20:00 20,6 C 16,1 C 0,0 UV-I 0,0 C 40 % 41 % 0 % 1024,3 hPa 0,0 l/m 0,0 km/h (0 Bft) 0,00 h 0,00 h 0,0 km/h (0 Bft)
17.04.2011 21:00 20,1 C 14,8 C 0,0 UV-I 0,0 C 41 % 45 % 0 % 1024,6 hPa 0,0 l/m 0,0 km/h (0 Bft) 0,00 h 0,00 h 0,0 km/h (0 Bft)
17.04.2011 22:00 19,7 C 14,1 C 0,0 UV-I 0,0 C 42 % 46 % 0 % 1024,7 hPa 0,0 l/m 0,4 km/h (0 Bft) 0,00 h 0,00 h 1,1 km/h (1 Bft)
17.04.2011 23:00 19,4 C 13,0 C 0,0 UV-I 0,0 C 42 % 49 % 0 % 1025,0 hPa 0,0 l/m 0,1 km/h (0 Bft) 0,00 h 0,00 h 0,2 km/h (0 Bft)
Min-Datum _ 15.04.11 15.04.11 11.04.11 11.04.11 13.04.11 17.04.11 11.04.11 12.04.11 - 11.04.11 - - 11.04.11
_ Min-Zeit 07:30 07:04 00:00 00:00 17:26 14:58 00:00 00:16 - 00:00 - - 00:00
Minimum _ 15,9 C 1,8 C 0,0 UV-I 0,0 C 38 % 30 % 0 % 1017,8 hPa - 0,0 km/h (0 Bft) - - 0,0 km/h (0 Bft)
Max-Datum _ 11.04.11 11.04.11 12.04.11 11.04.11 12.04.11 15.04.11 11.04.11 12.04.11 12.04.11 12.04.11 11.04.11 12.04.11 12.04.11
_ Max-Zeit 17:08 16:06 15:56 11:24 08:06 08:10 09:16 17:16 02:18 13:28 09:10 07:24 01:42
Maximum _ 23,6 C 25,0 C 9,0 UV-I 9,0 C 52 % 90 % 100 % 1026,9 hPa 1,2 l/m 30,1 km/h
W-SW (5 Bft)
0,03 h 0,03 h 54,7 km/h
S (7 Bft)
Durchschnitt _ 18,6 C 11,2 C 1,2 UV-I 1,8 C 44 % 62 % 34 % 1022,3 hPa #2,8 l/m 3,3 km/h (1 Bft) #47:34 h #31:32 h 5,2 km/h (1 Bft)
© 2012 W. Hausmann